Aérodrome :
LOGIN :

S'inscrire | Disclaimer

   EN    FR    IT 

 










Légende :    VFR   VFR Marginal   IFR   IFR Intensif   IFR Très Intensif
Visi : 
Plafond : 
>= 8 km
>= 3000ft
5 à 8 km
1000 à 3000 ft
1500m à 5 km
500 à 1000 ft
800 à 1500m
200 à 500 ft
< 800m
< 200 ft
Symboles :   Orages  Brouillard  Fortes neiges  Fortes précipitations  Vent > 20 kt
SIGMETs :   Divers  Orages  Givrage  Turbulence  Onde Orograph.  Cendres Volcan.







- Altitude de l'aérodrome : 1363 ft


ETIC - Grafenwohr Army Air Field

DERNIER METAR :
  • 180156Z AUTO 00000KT 9999 SCT001 04/04 A3007 RMK AO2 SLP183 T00430042 $

METARs EXPIRÉS :
  • 180139Z AUTO 00000KT 9999 FEW001 04/04 A3007 RMK AO2 SLP183 $
  • 180056Z AUTO 00000KT 9999 CLR 04/04 A3008 RMK AO2 SLP188 T00440043 $
  • 172356Z AUTO 00000KT 9999 CLR 06/05 A3009 RMK AO2 SLP190 T00550054 10118 20053 57008 $
  • 172310Z AUTO 00000KT 9999 FEW001 06/06 A3009 RMK AO2 SLP192 $
  • 172256Z AUTO 00000KT 9999 CLR 06/06 A3009 RMK AO2 SLP194 T00580057 402200037 $

TAF AMD TAF ETIC
Valide du 18 à 01h jusqu'au 19 à 04h UTC


180138Z 1801/1904 VRB06KT 6000 BR SKC QNH3005INS
TEMPO 1801/1807 3200 BR
BECMG 1808/1809 VRB06KT 9999 NSW SKC QNH2999INS
BECMG 1819/1820 VRB06KT 6000 BR SKC QNH3000INS TX20/1812Z TN03/1806Z
Pas de NOTAMs connus pour ce terrain.



MET'MAP, la Météo Aéronautique d'un coup d'oeil ! - Copyright ORBIFLY Décembre 2007 - Disclaimer

ORBIFLY MET'MAP TEAM :

Programmation & Développement : Alexandra Zaïnal
Conception & Développement : Baudouin d'Aumeries
Co-Programmation & Développement : Marc-Olivier Méhu
Soutien technique & logistique : Manuel Goepfert

Contact : metmap@orbifly.com




SOURCES & CREDITS :

   NOAA